createdAt,value
2022-08-05T00:01:36.499Z,23.04
2022-08-05T00:04:17.985Z,23.01
2022-08-05T00:06:45.367Z,23.00
2022-08-05T00:09:15.905Z,22.95
2022-08-05T00:11:48.691Z,22.84
2022-08-05T00:14:22.220Z,22.87
2022-08-05T00:16:54.757Z,22.86
2022-08-05T00:19:23.310Z,22.84
2022-08-05T00:21:52.122Z,22.82
2022-08-05T00:24:24.589Z,22.80
2022-08-05T00:26:58.632Z,22.76
2022-08-05T00:29:27.489Z,22.71
2022-08-05T00:32:12.809Z,22.72
2022-08-05T00:35:03.982Z,22.68
2022-08-05T00:37:35.714Z,22.63
2022-08-05T00:40:27.173Z,22.66
2022-08-05T00:43:00.674Z,22.59
2022-08-05T00:45:38.987Z,22.57
2022-08-05T00:48:11.914Z,22.51
2022-08-05T00:50:42.015Z,22.49
2022-08-05T00:53:44.954Z,22.50
2022-08-05T00:55:58.168Z,22.48
2022-08-05T00:58:27.510Z,22.48
2022-08-05T01:00:54.988Z,22.43
2022-08-05T01:03:23.324Z,22.36
2022-08-05T01:05:51.477Z,22.33
2022-08-05T01:08:40.996Z,22.30
2022-08-05T01:11:13.623Z,22.29
2022-08-05T01:14:11.286Z,22.31
2022-08-05T01:16:54.772Z,22.26
2022-08-05T01:19:56.402Z,22.20
2022-08-05T01:22:27.907Z,22.22
2022-08-05T01:25:40.999Z,22.15
2022-08-05T01:28:08.827Z,22.07
2022-08-05T01:30:39.966Z,22.01
2022-08-05T01:33:21.793Z,22.04
2022-08-05T01:35:57.444Z,22.03
2022-08-05T01:38:27.156Z,21.97
2022-08-05T01:40:57.602Z,21.94
2022-08-05T01:43:26.598Z,22.00
2022-08-05T01:45:56.157Z,21.78
2022-08-05T01:48:26.130Z,21.91
2022-08-05T01:50:56.343Z,21.87
2022-08-05T01:53:57.433Z,21.88
2022-08-05T01:58:12.660Z,21.84
2022-08-05T01:59:06.599Z,21.85
2022-08-05T02:01:39.755Z,21.84
2022-08-05T02:04:10.342Z,21.86
2022-08-05T02:06:38.936Z,21.81
2022-08-05T02:09:07.403Z,21.79
2022-08-05T02:11:48.148Z,21.77
2022-08-05T02:14:29.080Z,21.69
2022-08-05T02:17:08.023Z,21.72
2022-08-05T02:19:51.165Z,21.69
2022-08-05T02:22:27.486Z,21.65
2022-08-05T02:25:09.456Z,21.66
2022-08-05T02:27:59.905Z,21.62
2022-08-05T02:30:34.424Z,21.54
2022-08-05T02:33:03.083Z,21.50
2022-08-05T02:35:38.604Z,21.49
2022-08-05T02:38:19.525Z,21.50
2022-08-05T02:40:47.544Z,21.47
2022-08-05T02:43:16.808Z,21.37
2022-08-05T02:45:51.951Z,21.41
2022-08-05T02:48:29.488Z,21.36
2022-08-05T02:51:01.474Z,21.37
2022-08-05T02:53:39.628Z,21.30
2022-08-05T02:56:09.437Z,21.35
2022-08-05T02:58:43.793Z,21.28
2022-08-05T03:01:17.126Z,21.29
2022-08-05T03:04:03.383Z,21.20
2022-08-05T03:06:53.879Z,21.24
2022-08-05T03:09:36.463Z,21.24
2022-08-05T03:12:06.501Z,21.22
2022-08-05T03:14:35.022Z,21.20
2022-08-05T03:17:12.836Z,21.08
2022-08-05T03:19:39.574Z,21.08
2022-08-05T03:22:16.723Z,21.06
2022-08-05T03:24:47.215Z,21.05
2022-08-05T03:27:18.784Z,21.05
2022-08-05T03:30:08.111Z,21.03
2022-08-05T03:32:32.704Z,21.03
2022-08-05T03:35:00.074Z,20.98
2022-08-05T03:37:27.947Z,20.96
2022-08-05T03:40:01.301Z,20.86
2022-08-05T03:42:32.177Z,20.92
2022-08-05T03:44:59.576Z,20.87
2022-08-05T03:47:30.449Z,20.92
2022-08-05T03:50:02.155Z,20.88
2022-08-05T03:52:37.937Z,20.90
2022-08-05T03:56:05.325Z,20.79
2022-08-05T03:58:17.997Z,20.78
2022-08-05T04:00:51.694Z,20.83
2022-08-05T04:03:28.864Z,20.68
2022-08-05T04:05:58.068Z,20.71
2022-08-05T04:08:35.141Z,20.74
2022-08-05T04:11:06.890Z,20.76
2022-08-05T04:13:50.831Z,20.76
2022-08-05T04:16:25.254Z,20.80
2022-08-05T04:18:57.875Z,20.69
2022-08-05T04:22:08.672Z,20.68
2022-08-05T04:24:18.747Z,20.75
2022-08-05T04:26:48.376Z,20.78
2022-08-05T04:29:15.276Z,20.80
2022-08-05T04:31:42.893Z,20.77
2022-08-05T04:34:31.450Z,20.85
2022-08-05T04:36:56.766Z,20.86
2022-08-05T04:39:24.125Z,20.89
2022-08-05T04:41:54.181Z,20.91
2022-08-05T04:44:29.347Z,20.93
2022-08-05T04:46:59.002Z,20.96
2022-08-05T04:49:38.952Z,20.99
2022-08-05T04:52:14.656Z,21.02
2022-08-05T04:54:42.114Z,21.04
2022-08-05T04:57:08.940Z,21.06
2022-08-05T04:59:40.597Z,21.08
2022-08-05T05:02:37.020Z,21.10
2022-08-05T05:05:02.840Z,21.15
2022-08-05T05:07:32.870Z,21.18
2022-08-05T05:10:03.088Z,21.20
2022-08-05T05:12:29.970Z,21.23
2022-08-05T05:14:56.820Z,21.27
2022-08-05T05:17:55.887Z,21.34
2022-08-05T05:20:12.496Z,21.39
2022-08-05T05:22:40.915Z,21.45
2022-08-05T05:25:17.022Z,21.49
2022-08-05T05:27:53.456Z,21.54
2022-08-05T05:30:29.485Z,21.58
2022-08-05T05:33:00.613Z,21.64
2022-08-05T05:35:37.801Z,21.69
2022-08-05T05:38:05.759Z,21.75
2022-08-05T05:40:36.679Z,21.84
2022-08-05T05:43:03.642Z,21.90
2022-08-05T05:45:30.494Z,21.96
2022-08-05T05:48:05.321Z,22.04
2022-08-05T05:50:35.278Z,22.13
2022-08-05T05:53:20.811Z,22.21
2022-08-05T05:55:52.281Z,22.32
2022-08-05T05:58:30.228Z,22.40
2022-08-05T06:01:13.064Z,22.46
2022-08-05T06:04:01.052Z,22.56
2022-08-05T06:06:31.134Z,22.65
2022-08-05T06:09:00.364Z,22.72
2022-08-05T06:11:29.097Z,22.81
2022-08-05T06:13:56.820Z,22.89
2022-08-05T06:16:29.146Z,22.94
2022-08-05T06:19:00.990Z,23.05
2022-08-05T06:21:35.908Z,23.13
2022-08-05T06:24:11.969Z,23.22
2022-08-05T06:26:52.341Z,23.31
2022-08-05T06:29:43.034Z,23.42
2022-08-05T06:32:25.531Z,23.58
2022-08-05T06:34:56.419Z,23.65
2022-08-05T06:37:58.075Z,23.76
2022-08-05T06:40:12.756Z,23.89
2022-08-05T06:42:40.886Z,24.03
2022-08-05T06:45:09.342Z,24.11
2022-08-05T06:48:47.408Z,24.24
2022-08-05T06:50:24.105Z,24.35
2022-08-05T06:53:03.924Z,24.44
2022-08-05T06:55:37.945Z,24.54
2022-08-05T06:58:29.782Z,24.66
2022-08-05T07:01:00.877Z,24.80
2022-08-05T07:03:32.540Z,24.90
2022-08-05T07:06:06.033Z,24.97
2022-08-05T07:08:47.637Z,25.08
2022-08-05T07:11:22.370Z,25.23
2022-08-05T07:13:57.839Z,25.32
2022-08-05T07:18:00.995Z,25.38
2022-08-05T07:19:44.301Z,25.50
2022-08-05T07:22:06.644Z,25.61
2022-08-05T07:24:35.182Z,25.62
2022-08-05T07:27:10.974Z,25.75
2022-08-05T07:30:27.529Z,25.83
2022-08-05T07:32:26.368Z,25.90
2022-08-05T07:34:57.943Z,26.06
2022-08-05T07:37:36.013Z,26.00
2022-08-05T07:40:31.483Z,26.05
2022-08-05T07:42:54.787Z,26.22
2022-08-05T07:45:56.825Z,26.31
2022-08-05T07:48:08.587Z,26.41
2022-08-05T07:50:35.490Z,26.50
2022-08-05T07:53:03.791Z,26.49
2022-08-05T07:55:44.372Z,26.65
2022-08-05T07:58:57.625Z,26.75
2022-08-05T08:01:06.196Z,26.84
2022-08-05T08:03:44.261Z,26.97
2022-08-05T08:06:11.829Z,27.04
2022-08-05T08:08:38.660Z,27.16
2022-08-05T08:11:08.745Z,27.13
2022-08-05T08:13:49.414Z,27.09
2022-08-05T08:16:35.232Z,27.17
2022-08-05T08:19:09.584Z,27.29
2022-08-05T08:21:56.432Z,27.41
2022-08-05T08:24:45.952Z,27.48
2022-08-05T08:27:11.143Z,27.54
2022-08-05T08:30:06.485Z,27.61
2022-08-05T08:32:30.225Z,27.74
2022-08-05T08:34:59.366Z,27.89
2022-08-05T08:37:28.154Z,27.96
2022-08-05T08:39:55.118Z,28.03
2022-08-05T08:42:34.096Z,28.06
2022-08-05T08:45:24.221Z,28.20
2022-08-05T08:48:10.568Z,28.32
2022-08-05T08:51:03.296Z,28.45
2022-08-05T08:53:36.985Z,28.47
2022-08-05T08:56:06.176Z,28.56
2022-08-05T08:58:43.155Z,28.61
2022-08-05T09:01:16.413Z,28.60
2022-08-05T09:03:47.429Z,28.62
2022-08-05T09:06:18.664Z,28.77
2022-08-05T09:08:48.140Z,28.85
2022-08-05T09:11:15.253Z,29.01
2022-08-05T09:14:10.153Z,29.02
2022-08-05T09:16:30.531Z,29.07
2022-08-05T09:18:59.522Z,29.15
2022-08-05T09:22:17.544Z,29.26
2022-08-05T09:24:13.354Z,29.26
2022-08-05T09:26:47.224Z,29.39
2022-08-05T09:29:19.048Z,29.53
2022-08-05T09:32:40.694Z,29.62
2022-08-05T09:34:54.985Z,29.71
2022-08-05T09:38:16.959Z,29.75
2022-08-05T09:40:36.099Z,29.81
2022-08-05T09:43:04.497Z,29.76
2022-08-05T09:46:06.696Z,29.77
2022-08-05T09:48:31.311Z,29.82
2022-08-05T09:51:03.149Z,29.87
2022-08-05T09:53:54.489Z,29.94
2022-08-05T09:56:31.828Z,29.97
2022-08-05T09:59:04.209Z,30.00
2022-08-05T10:01:33.012Z,30.12
2022-08-05T10:04:01.642Z,30.15
2022-08-05T10:06:31.602Z,30.27
2022-08-05T10:09:25.092Z,30.32
2022-08-05T10:11:55.406Z,30.32
2022-08-05T10:14:28.512Z,30.32
2022-08-05T10:17:38.006Z,30.30
2022-08-05T10:20:10.808Z,30.36
2022-08-05T10:22:42.902Z,30.40
2022-08-05T10:25:15.948Z,30.43
2022-08-05T10:28:13.662Z,30.53
2022-08-05T10:32:46.715Z,30.63
2022-08-05T10:33:17.486Z,30.69
2022-08-05T10:35:49.648Z,30.71
2022-08-05T10:38:28.684Z,30.74
2022-08-05T10:41:46.874Z,30.82
2022-08-05T10:44:18.466Z,30.96
2022-08-05T10:46:54.432Z,31.10
2022-08-05T10:49:26.901Z,31.13
2022-08-05T10:52:00.201Z,31.16
2022-08-05T10:55:02.033Z,31.24
2022-08-05T10:57:32.326Z,31.26
2022-08-05T11:00:20.516Z,31.30
2022-08-05T11:03:25.532Z,31.35
2022-08-05T11:06:04.996Z,31.46
2022-08-05T11:08:37.092Z,31.48
2022-08-05T11:11:44.882Z,31.42
2022-08-05T11:15:00.860Z,31.39
2022-08-05T11:17:58.651Z,31.41
2022-08-05T11:20:32.527Z,31.36
2022-08-05T11:23:05.906Z,31.52
2022-08-05T11:26:05.144Z,31.78
2022-08-05T11:28:26.956Z,32.02
2022-08-05T11:30:58.456Z,31.99
2022-08-05T11:33:48.093Z,31.99
2022-08-05T11:36:34.376Z,32.11
2022-08-05T11:39:08.503Z,32.08
2022-08-05T11:42:00.797Z,32.13
2022-08-05T11:44:41.258Z,32.05
2022-08-05T11:47:15.200Z,32.45
2022-08-05T11:49:49.796Z,32.32
2022-08-05T11:52:29.726Z,32.23
2022-08-05T11:54:58.764Z,32.16
2022-08-05T11:58:08.165Z,32.22
2022-08-05T12:00:31.384Z,32.43
2022-08-05T12:02:58.486Z,32.23
2022-08-05T12:05:36.376Z,32.28
2022-08-05T12:08:11.754Z,32.27
2022-08-05T12:10:46.628Z,32.55
2022-08-05T12:13:27.987Z,32.79
2022-08-05T12:16:14.508Z,32.78
2022-08-05T12:18:42.637Z,33.08
2022-08-05T12:21:20.210Z,33.58
2022-08-05T12:24:07.096Z,33.43
2022-08-05T12:27:00.099Z,33.75
2022-08-05T12:29:37.933Z,33.62
2022-08-05T12:32:07.637Z,33.36
2022-08-05T12:34:38.103Z,33.54
2022-08-05T12:37:09.843Z,33.36
2022-08-05T12:39:41.152Z,33.42
2022-08-05T12:42:14.862Z,33.60
2022-08-05T12:44:43.229Z,33.78
2022-08-05T12:47:12.436Z,33.84
2022-08-05T12:50:02.346Z,33.80
2022-08-05T12:52:39.646Z,33.68
2022-08-05T12:55:25.630Z,33.60
2022-08-05T12:58:48.827Z,33.83
2022-08-05T13:02:00.257Z,34.13
2022-08-05T13:03:31.985Z,34.09
2022-08-05T13:06:00.145Z,33.95
2022-08-05T13:08:32.225Z,33.83
2022-08-05T13:11:02.402Z,33.74
2022-08-05T13:14:06.466Z,33.72
2022-08-05T13:16:25.280Z,33.66
2022-08-05T13:18:58.536Z,33.72
2022-08-05T13:21:27.782Z,33.72
2022-08-05T13:23:55.718Z,34.00
2022-08-05T13:26:29.792Z,33.91
2022-08-05T13:28:59.173Z,34.16
2022-08-05T13:31:33.796Z,34.03
2022-08-05T13:34:23.086Z,34.11
2022-08-05T13:36:55.497Z,34.06
2022-08-05T13:40:13.613Z,33.97
2022-08-05T13:42:13.965Z,34.03
2022-08-05T13:44:45.359Z,34.08
2022-08-05T13:47:34.831Z,33.99
2022-08-05T13:50:04.087Z,34.01
2022-08-05T13:52:35.420Z,34.03
2022-08-05T13:55:07.627Z,34.16
2022-08-05T13:57:51.050Z,33.95
2022-08-05T14:00:26.993Z,34.18
2022-08-05T14:03:01.059Z,34.41
2022-08-05T14:05:48.483Z,34.49
2022-08-05T14:08:21.385Z,34.32
2022-08-05T14:11:03.104Z,34.44
2022-08-05T14:13:42.235Z,34.34
2022-08-05T14:16:11.559Z,34.28
2022-08-05T14:18:38.565Z,34.23
2022-08-05T14:22:07.065Z,34.48
2022-08-05T14:23:52.388Z,34.65
2022-08-05T14:26:38.420Z,34.47
2022-08-05T14:29:16.180Z,34.47
2022-08-05T14:32:02.749Z,34.42
2022-08-05T14:34:35.404Z,34.33
2022-08-05T14:37:03.813Z,34.28
2022-08-05T14:39:50.271Z,34.29
2022-08-05T14:42:20.796Z,34.22
2022-08-05T14:44:49.096Z,34.22
2022-08-05T14:47:15.932Z,34.31
2022-08-05T14:49:59.410Z,34.17
2022-08-05T14:52:50.362Z,34.24
2022-08-05T14:55:15.663Z,34.08
2022-08-05T14:57:54.722Z,34.08
2022-08-05T15:00:29.537Z,34.18
2022-08-05T15:02:56.623Z,34.25
2022-08-05T15:05:30.118Z,34.43
2022-08-05T15:08:17.839Z,34.38
2022-08-05T15:10:58.669Z,34.36
2022-08-05T15:13:44.878Z,34.44
2022-08-05T15:16:13.193Z,34.48
2022-08-05T15:18:40.091Z,34.36
2022-08-05T15:21:08.363Z,34.45
2022-08-05T15:23:35.100Z,34.58
2022-08-05T15:26:05.024Z,34.71
2022-08-05T15:28:33.970Z,34.55
2022-08-05T15:31:00.751Z,34.75
2022-08-05T15:34:05.145Z,34.78
2022-08-05T15:36:24.159Z,34.66
2022-08-05T15:41:00.728Z,34.61
2022-08-05T15:41:56.338Z,34.51
2022-08-05T15:44:26.204Z,34.59
2022-08-05T15:46:55.787Z,34.53
2022-08-05T15:49:40.746Z,34.49
2022-08-05T15:52:16.269Z,34.32
2022-08-05T15:54:44.337Z,34.23
2022-08-05T15:57:11.229Z,34.02
2022-08-05T15:59:39.085Z,34.00
2022-08-05T16:02:09.596Z,34.01
2022-08-05T16:04:42.548Z,33.88
2022-08-05T16:07:10.670Z,33.78
2022-08-05T16:09:41.812Z,33.83
2022-08-05T16:12:09.093Z,33.85
2022-08-05T16:14:36.941Z,33.92
2022-08-05T16:17:04.039Z,33.91
2022-08-05T16:20:04.987Z,33.87
2022-08-05T16:22:17.750Z,33.82
2022-08-05T16:24:52.282Z,33.86
2022-08-05T16:27:19.572Z,33.80
2022-08-05T16:30:07.823Z,33.77
2022-08-05T16:32:50.376Z,33.70
2022-08-05T16:35:17.291Z,33.65
2022-08-05T16:38:03.707Z,33.64
2022-08-05T16:40:33.080Z,33.64
2022-08-05T16:42:59.927Z,33.57
2022-08-05T16:46:06.745Z,33.59
2022-08-05T16:48:25.161Z,33.57
2022-08-05T16:50:53.670Z,33.53
2022-08-05T16:53:22.359Z,33.51
2022-08-05T16:55:50.209Z,33.48
2022-08-05T16:58:19.641Z,33.46
2022-08-05T17:00:48.192Z,33.40
2022-08-05T17:03:20.339Z,33.37
2022-08-05T17:05:53.579Z,33.31
2022-08-05T17:08:33.439Z,33.28
2022-08-05T17:11:12.787Z,33.25
2022-08-05T17:13:45.252Z,33.20
2022-08-05T17:16:29.880Z,33.15
2022-08-05T17:18:59.213Z,33.14
2022-08-05T17:21:26.142Z,33.13
2022-08-05T17:24:30.167Z,33.10
2022-08-05T17:26:58.174Z,33.08
2022-08-05T17:29:34.063Z,33.06
2022-08-05T17:32:11.676Z,32.96
2022-08-05T17:34:43.721Z,32.82
2022-08-05T17:37:29.483Z,32.74
2022-08-05T17:39:59.836Z,32.67
2022-08-05T17:42:31.854Z,32.61
2022-08-05T17:44:59.229Z,32.60
2022-08-05T17:47:27.259Z,32.50
2022-08-05T17:50:04.016Z,32.48
2022-08-05T17:52:32.605Z,32.48
2022-08-05T17:55:00.516Z,32.54
2022-08-05T17:57:28.514Z,32.53
2022-08-05T18:00:03.665Z,32.41
2022-08-05T18:02:34.080Z,32.38
2022-08-05T18:05:01.892Z,32.28
2022-08-05T18:07:32.767Z,32.23
2022-08-05T18:10:10.436Z,32.26
2022-08-05T18:12:37.691Z,32.26
2022-08-05T18:15:05.668Z,32.33
2022-08-05T18:18:00.239Z,32.29
2022-08-05T18:20:29.336Z,32.13
2022-08-05T18:23:11.965Z,32.04
2022-08-05T18:25:45.369Z,31.97
2022-08-05T18:28:16.253Z,31.96
2022-08-05T18:30:45.356Z,31.89
2022-08-05T18:33:13.764Z,31.87
2022-08-05T18:36:01.197Z,31.75
2022-08-05T18:38:28.797Z,31.64
2022-08-05T18:41:54.127Z,31.56
2022-08-05T18:43:42.921Z,31.52
2022-08-05T18:46:15.853Z,31.46
2022-08-05T18:48:51.981Z,31.36
2022-08-05T18:52:04.278Z,31.33
2022-08-05T18:54:08.872Z,31.29
2022-08-05T18:56:35.968Z,31.29
2022-08-05T18:59:41.892Z,31.21
2022-08-05T19:01:57.024Z,31.10
2022-08-05T19:04:25.972Z,30.94
2022-08-05T19:06:53.589Z,30.85
2022-08-05T19:09:21.298Z,30.67
2022-08-05T19:12:00.075Z,30.65
2022-08-05T19:14:37.864Z,30.65
2022-08-05T19:17:17.382Z,30.69
2022-08-05T19:19:47.082Z,30.66
2022-08-05T19:22:17.039Z,30.57
2022-08-05T19:24:54.139Z,30.56
2022-08-05T19:27:27.745Z,30.50
2022-08-05T19:29:58.127Z,30.45
2022-08-05T19:32:26.268Z,30.36
2022-08-05T19:34:55.889Z,30.29
2022-08-05T19:37:35.105Z,30.26
2022-08-05T19:40:12.355Z,30.21
2022-08-05T19:43:00.889Z,30.13
2022-08-05T19:45:30.515Z,30.06
2022-08-05T19:48:04.320Z,30.00
2022-08-05T19:50:32.489Z,29.91
2022-08-05T19:53:09.495Z,29.79
2022-08-05T19:56:14.201Z,29.72
2022-08-05T19:58:28.504Z,29.66
2022-08-05T20:00:57.796Z,29.55
2022-08-05T20:03:26.263Z,29.41
2022-08-05T20:05:53.603Z,29.39
2022-08-05T20:08:24.595Z,29.28
2022-08-05T20:10:52.424Z,29.21
2022-08-05T20:13:30.349Z,29.18
2022-08-05T20:16:07.791Z,29.09
2022-08-05T20:18:36.903Z,29.06
2022-08-05T20:21:06.767Z,29.01
2022-08-05T20:23:40.409Z,28.96
2022-08-05T20:26:19.849Z,28.84
2022-08-05T20:28:51.215Z,28.83
2022-08-05T20:31:36.740Z,28.79
2022-08-05T20:34:05.064Z,28.69
2022-08-05T20:36:31.967Z,28.68
2022-08-05T20:38:59.611Z,28.54
2022-08-05T20:41:43.904Z,28.57
2022-08-05T20:44:18.694Z,28.53
2022-08-05T20:46:57.012Z,28.54
2022-08-05T20:49:26.046Z,28.52
2022-08-05T20:51:54.365Z,28.38
2022-08-05T20:54:25.623Z,28.38
2022-08-05T20:57:10.852Z,28.27
2022-08-05T20:59:46.305Z,28.10
2022-08-05T21:02:29.203Z,27.99
2022-08-05T21:04:55.998Z,27.91
2022-08-05T21:07:24.212Z,27.91
2022-08-05T21:09:53.770Z,27.95
2022-08-05T21:12:21.284Z,27.98
2022-08-05T21:14:48.004Z,27.99
2022-08-05T21:17:15.610Z,28.02
2022-08-05T21:19:47.268Z,28.04
2022-08-05T21:22:18.666Z,28.09
2022-08-05T21:24:51.375Z,28.09
2022-08-05T21:27:24.962Z,28.04
2022-08-05T21:29:52.647Z,27.99
2022-08-05T21:32:27.242Z,28.02
2022-08-05T21:35:17.849Z,28.05
2022-08-05T21:37:47.269Z,28.08
2022-08-05T21:40:21.033Z,28.08
2022-08-05T21:42:48.083Z,28.20
2022-08-05T21:45:24.669Z,28.19
2022-08-05T21:47:56.172Z,28.11
2022-08-05T21:50:26.515Z,28.00
2022-08-05T21:52:58.556Z,27.97
2022-08-05T21:55:43.140Z,27.90
2022-08-05T21:58:13.223Z,27.89
2022-08-05T22:00:40.329Z,27.89
2022-08-05T22:03:09.954Z,27.92
2022-08-05T22:05:49.061Z,27.97
2022-08-05T22:08:22.185Z,27.96
2022-08-05T22:10:51.887Z,27.96
2022-08-05T22:14:05.760Z,27.97
2022-08-05T22:16:32.166Z,27.96
2022-08-05T22:18:54.580Z,27.96
2022-08-05T22:21:25.660Z,27.95
2022-08-05T22:24:02.814Z,27.91
2022-08-05T22:26:35.723Z,27.92
2022-08-05T22:29:03.987Z,27.88
2022-08-05T22:31:30.988Z,27.85
2022-08-05T22:34:11.457Z,27.82
2022-08-05T22:36:48.203Z,27.83
2022-08-05T22:39:15.186Z,27.80
2022-08-05T22:42:09.898Z,27.77
2022-08-05T22:44:29.539Z,27.78
2022-08-05T22:46:56.530Z,27.76
2022-08-05T22:50:19.055Z,27.77
2022-08-05T22:52:15.391Z,27.74
2022-08-05T22:54:50.218Z,27.68
2022-08-05T22:57:17.041Z,27.65
2022-08-05T22:59:53.788Z,27.64
2022-08-05T23:02:28.988Z,27.64
2022-08-05T23:04:58.354Z,27.61
2022-08-05T23:07:30.333Z,27.66
2022-08-05T23:10:01.420Z,27.65
2022-08-05T23:12:32.663Z,27.66
2022-08-05T23:15:09.112Z,27.65
2022-08-05T23:17:59.720Z,27.62
2022-08-05T23:20:24.443Z,27.57
2022-08-05T23:22:56.032Z,27.55
2022-08-05T23:25:51.725Z,27.56
2022-08-05T23:28:12.202Z,27.61
2022-08-05T23:30:39.683Z,27.65
2022-08-05T23:33:22.037Z,27.66
2022-08-05T23:35:55.815Z,27.67
2022-08-05T23:38:24.508Z,27.63
2022-08-05T23:40:52.828Z,27.60
2022-08-05T23:43:25.369Z,27.56
2022-08-05T23:46:20.852Z,27.50
2022-08-05T23:49:00.326Z,27.42
2022-08-05T23:51:33.291Z,27.32
2022-08-05T23:54:01.463Z,27.21
2022-08-05T23:56:28.992Z,27.11
2022-08-05T23:58:58.686Z,27.00
